Time;durP1;ratioP1;P1;durP2;ratioP2;P2;SDS_P1;SDS_P2;PMS_P1;PMS_P2;Temp;Humidity;BMP_temperature;BMP_pressure;BME280_temperature;BME280_humidity;BME280_pressure;Samples;Min_cycle;Max_cycle;Signal;HPM_P1;HPM_P2
2023/04/12 00:01:50;;;;;;;8.27;5.97;;;;;;;;;;5015083;28;20220;-86
2023/04/12 00:04:16;;;;;;;10.20;6.13;;;;;;;;;;4998796;28;20220;-87
2023/04/12 00:06:47;;;;;;;10.93;6.27;;;;;;;;;;5000171;28;20216;-87
2023/04/12 00:09:15;;;;;;;10.03;6.23;;;;;;;;;;5009542;28;20236;-85
2023/04/12 00:11:43;;;;;;;8.43;6.10;;;;;;;;;;5021454;28;20775;-83
2023/04/12 00:14:08;;;;;;;11.23;6.37;;;;;;;;;;5013971;28;20229;-88
2023/04/12 00:16:35;;;;;;;11.93;6.03;;;;;;;;;;5031188;28;20565;-84
2023/04/12 00:19:02;;;;;;;8.27;5.80;;;;;;;;;;5002536;28;20228;-86
2023/04/12 00:21:28;;;;;;;8.43;5.47;;;;;;;;;;5030703;28;20219;-87
2023/04/12 00:23:54;;;;;;;8.50;5.73;;;;;;;;;;4998754;28;20247;-87
2023/04/12 00:26:22;;;;;;;7.73;6.17;;;;;;;;;;5001103;28;20235;-87
2023/04/12 00:28:48;;;;;;;12.03;5.60;;;;;;;;;;5015469;28;20228;-87
2023/04/12 00:31:13;;;;;;;9.53;5.47;;;;;;;;;;5000491;28;20226;-85
2023/04/12 00:33:41;;;;;;;8.53;5.33;;;;;;;;;;4984016;28;20220;-85
2023/04/12 00:36:09;;;;;;;7.77;5.10;;;;;;;;;;5011929;28;20229;-86
2023/04/12 00:38:35;;;;;;;8.77;5.83;;;;;;;;;;5022533;28;20293;-84
2023/04/12 00:41:07;;;;;;;9.77;5.43;;;;;;;;;;5004461;28;20255;-86
2023/04/12 00:43:33;;;;;;;7.80;5.57;;;;;;;;;;5041701;28;20227;-83
2023/04/12 00:45:58;;;;;;;9.77;5.73;;;;;;;;;;5020468;28;20224;-84
2023/04/12 00:48:26;;;;;;;10.20;5.60;;;;;;;;;;5019919;28;20325;-83
2023/04/12 00:50:56;;;;;;;8.57;5.57;;;;;;;;;;5021012;28;20254;-84
2023/04/12 00:53:24;;;;;;;7.20;5.27;;;;;;;;;;5023125;28;20567;-83
2023/04/12 00:55:54;;;;;;;8.20;5.13;;;;;;;;;;4995777;28;20236;-88
2023/04/12 00:58:23;;;;;;;7.93;5.33;;;;;;;;;;5020032;28;20285;-84
2023/04/12 01:00:54;;;;;;;10.23;5.63;;;;;;;;;;4998786;28;20239;-88
2023/04/12 01:03:26;;;;;;;9.43;5.83;;;;;;;;;;5004211;28;20227;-87
2023/04/12 01:06:20;;;;;;;9.53;5.23;;;;;;;;;;4987116;28;20230;-87
2023/04/12 01:09:14;;;;;;;10.70;4.90;;;;;;;;;;4984498;28;20223;-84
2023/04/12 01:12:04;;;;;;;7.60;5.20;;;;;;;;;;5036085;28;20235;-86
2023/04/12 01:14:51;;;;;;;8.60;5.40;;;;;;;;;;5031484;28;20258;-88
2023/04/12 01:17:23;;;;;;;9.53;5.17;;;;;;;;;;5006904;28;20216;-83
2023/04/12 01:20:17;;;;;;;8.70;5.80;;;;;;;;;;5004396;28;20304;-85
2023/04/12 01:22:52;;;;;;;9.73;5.37;;;;;;;;;;5035329;28;20219;-85
2023/04/12 01:25:37;;;;;;;10.03;5.27;;;;;;;;;;5017554;28;20230;-83
2023/04/12 01:28:08;;;;;;;5.97;5.07;;;;;;;;;;5050056;28;20235;-87
2023/04/12 01:30:34;;;;;;;10.67;5.57;;;;;;;;;;5022084;28;20228;-85
2023/04/12 01:33:01;;;;;;;11.93;5.97;;;;;;;;;;5001410;28;20216;-87
2023/04/12 01:35:29;;;;;;;9.20;5.73;;;;;;;;;;5005988;28;20962;-87
2023/04/12 01:37:59;;;;;;;10.63;5.53;;;;;;;;;;5014480;28;20227;-85
2023/04/12 01:40:29;;;;;;;9.57;5.60;;;;;;;;;;5022823;28;20701;-84
2023/04/12 01:43:04;;;;;;;14.90;6.27;;;;;;;;;;5034179;28;20224;-85
2023/04/12 01:45:32;;;;;;;8.83;5.77;;;;;;;;;;5049892;28;20224;-86
2023/04/12 01:48:00;;;;;;;10.87;6.17;;;;;;;;;;5001331;28;20227;-83
2023/04/12 01:50:39;;;;;;;9.90;6.30;;;;;;;;;;5003194;28;20231;-85
2023/04/12 01:53:16;;;;;;;14.47;6.97;;;;;;;;;;5014430;28;20266;-85
2023/04/12 01:55:44;;;;;;;10.33;6.50;;;;;;;;;;5008905;28;20223;-84
2023/04/12 01:58:10;;;;;;;11.07;6.37;;;;;;;;;;5000847;28;20287;-86
2023/04/12 02:00:36;;;;;;;7.93;6.50;;;;;;;;;;4999904;28;20223;-85
2023/04/12 02:03:03;;;;;;;10.97;6.43;;;;;;;;;;5000978;28;20216;-85
2023/04/12 02:05:28;;;;;;;8.23;6.23;;;;;;;;;;5013907;28;20280;-85
2023/04/12 02:07:56;;;;;;;9.13;6.30;;;;;;;;;;5004403;28;20224;-87
2023/04/12 02:10:30;;;;;;;9.93;6.40;;;;;;;;;;5014107;28;20641;-87
2023/04/12 02:13:01;;;;;;;8.07;6.13;;;;;;;;;;5017592;28;20223;-87
2023/04/12 02:15:29;;;;;;;11.87;6.63;;;;;;;;;;5004469;28;20220;-83
2023/04/12 02:17:58;;;;;;;8.53;6.10;;;;;;;;;;5008442;28;20235;-86
2023/04/12 02:20:24;;;;;;;13.23;6.83;;;;;;;;;;5000054;28;20597;-86
2023/04/12 02:22:52;;;;;;;13.67;6.37;;;;;;;;;;5021157;28;20300;-84
2023/04/12 02:25:20;;;;;;;9.87;6.03;;;;;;;;;;5008317;28;20220;-87
2023/04/12 02:27:47;;;;;;;10.57;5.70;;;;;;;;;;5005611;28;20247;-86
2023/04/12 02:30:13;;;;;;;10.20;6.23;;;;;;;;;;5004297;28;20224;-85
2023/04/12 02:32:44;;;;;;;7.60;5.63;;;;;;;;;;5033347;28;20763;-87
2023/04/12 02:35:13;;;;;;;8.60;5.53;;;;;;;;;;5006283;28;20291;-84
2023/04/12 02:37:39;;;;;;;9.83;5.70;;;;;;;;;;5018763;28;20208;-85
2023/04/12 02:40:05;;;;;;;7.37;5.20;;;;;;;;;;4999970;28;20293;-85
2023/04/12 02:42:32;;;;;;;8.40;5.20;;;;;;;;;;5000680;28;20267;-85
2023/04/12 02:45:00;;;;;;;8.97;5.07;;;;;;;;;;5006423;28;20223;-87
2023/04/12 02:47:27;;;;;;;8.60;5.07;;;;;;;;;;5031419;28;20242;-85
2023/04/12 02:50:00;;;;;;;8.23;5.00;;;;;;;;;;5001698;28;20716;-86
2023/04/12 02:52:28;;;;;;;12.40;5.63;;;;;;;;;;5003499;28;20221;-86
2023/04/12 02:55:07;;;;;;;11.43;5.30;;;;;;;;;;5002225;28;20320;-84
2023/04/12 02:57:33;;;;;;;9.87;5.00;;;;;;;;;;5003404;28;20303;-84
2023/04/12 02:59:59;;;;;;;8.40;5.30;;;;;;;;;;5019161;28;20234;-85
2023/04/12 03:02:39;;;;;;;9.07;5.07;;;;;;;;;;5003307;28;20220;-86
2023/04/12 03:05:11;;;;;;;7.90;4.80;;;;;;;;;;5011089;28;20224;-85
2023/04/12 03:07:40;;;;;;;7.77;5.00;;;;;;;;;;5015848;28;20292;-85
2023/04/12 03:10:12;;;;;;;6.93;4.63;;;;;;;;;;5000169;28;20243;-86
2023/04/12 03:12:46;;;;;;;8.73;4.60;;;;;;;;;;5029265;28;20215;-85
2023/04/12 03:15:18;;;;;;;9.27;4.70;;;;;;;;;;5014575;28;20224;-84
2023/04/12 03:17:47;;;;;;;7.10;5.07;;;;;;;;;;5017104;28;20247;-85
2023/04/12 03:20:19;;;;;;;10.07;4.93;;;;;;;;;;5013634;28;20715;-83
2023/04/12 03:22:54;;;;;;;10.70;6.67;;;;;;;;;;5050369;28;20238;-84
2023/04/12 03:25:22;;;;;;;8.33;4.40;;;;;;;;;;5034848;28;20224;-82
2023/04/12 03:27:56;;;;;;;6.73;4.40;;;;;;;;;;5003150;28;20228;-83
2023/04/12 03:30:28;;;;;;;6.80;4.27;;;;;;;;;;5003880;28;20227;-87
2023/04/12 03:32:58;;;;;;;8.23;4.60;;;;;;;;;;5031198;28;20231;-83
2023/04/12 03:35:28;;;;;;;6.47;3.90;;;;;;;;;;5000064;28;20223;-85
2023/04/12 03:37:57;;;;;;;6.90;3.90;;;;;;;;;;5039074;28;20216;-86
2023/04/12 03:40:26;;;;;;;6.87;3.77;;;;;;;;;;4999052;28;20228;-85
2023/04/12 03:42:56;;;;;;;6.83;3.60;;;;;;;;;;5000304;28;20345;-84
2023/04/12 03:45:24;;;;;;;8.03;3.80;;;;;;;;;;4998113;28;20216;-86
2023/04/12 03:47:55;;;;;;;8.97;3.60;;;;;;;;;;5028002;28;20350;-85
2023/04/12 03:50:43;;;;;;;4.67;3.63;;;;;;;;;;5002793;28;20223;-88
2023/04/12 03:53:10;;;;;;;8.17;4.13;;;;;;;;;;5018674;28;20543;-85
2023/04/12 03:55:39;;;;;;;4.83;3.20;;;;;;;;;;4999218;28;20288;-82
2023/04/12 03:58:07;;;;;;;7.70;3.77;;;;;;;;;;4999905;28;20258;-85
2023/04/12 04:00:40;;;;;;;8.00;3.53;;;;;;;;;;5001943;28;20216;-84
2023/04/12 04:03:07;;;;;;;6.37;3.40;;;;;;;;;;5016859;28;20350;-85
2023/04/12 04:05:42;;;;;;;6.93;2.90;;;;;;;;;;5001235;28;20791;-84
2023/04/12 04:08:09;;;;;;;6.13;3.13;;;;;;;;;;5022618;28;20228;-83
2023/04/12 04:10:58;;;;;;;7.87;3.20;;;;;;;;;;5017979;28;20219;-84
2023/04/12 04:13:29;;;;;;;4.57;2.80;;;;;;;;;;4989162;28;20252;-86
2023/04/12 04:16:04;;;;;;;6.73;2.90;;;;;;;;;;5015854;28;20223;-84
2023/04/12 04:18:30;;;;;;;7.97;2.93;;;;;;;;;;5002870;28;20216;-81
2023/04/12 04:20:59;;;;;;;5.20;2.87;;;;;;;;;;5004097;28;20307;-86
2023/04/12 04:23:37;;;;;;;4.93;3.07;;;;;;;;;;5019516;28;20351;-84
2023/04/12 04:26:09;;;;;;;8.13;3.03;;;;;;;;;;5024167;28;20647;-84
2023/04/12 04:28:38;;;;;;;6.70;2.80;;;;;;;;;;4998941;28;20224;-82
2023/04/12 04:31:05;;;;;;;4.67;2.60;;;;;;;;;;5020767;28;20657;-86
2023/04/12 04:33:32;;;;;;;3.87;2.60;;;;;;;;;;5036760;28;20220;-86
2023/04/12 04:36:04;;;;;;;6.60;2.60;;;;;;;;;;5037202;28;20255;-85
2023/04/12 04:38:32;;;;;;;5.73;2.47;;;;;;;;;;5038163;28;20220;-85
2023/04/12 04:41:09;;;;;;;5.23;2.73;;;;;;;;;;5022677;28;20220;-85
2023/04/12 04:43:55;;;;;;;4.30;2.50;;;;;;;;;;5007654;28;20271;-83
2023/04/12 04:46:29;;;;;;;6.10;2.60;;;;;;;;;;5018922;28;20246;-85
2023/04/12 04:48:55;;;;;;;5.07;2.53;;;;;;;;;;5021916;28;20232;-85
2023/04/12 04:51:20;;;;;;;5.83;2.60;;;;;;;;;;5004193;28;20220;-86
2023/04/12 04:53:48;;;;;;;4.77;2.50;;;;;;;;;;5029705;28;20602;-84
2023/04/12 04:56:18;;;;;;;5.10;2.80;;;;;;;;;;4986130;28;20224;-83
2023/04/12 04:58:49;;;;;;;4.00;2.50;;;;;;;;;;5021184;28;20282;-83
2023/04/12 05:01:15;;;;;;;6.27;2.70;;;;;;;;;;5001565;28;20222;-86
2023/04/12 05:03:43;;;;;;;4.57;2.80;;;;;;;;;;5001605;28;20212;-84
2023/04/12 05:06:10;;;;;;;5.03;2.40;;;;;;;;;;5001812;28;20667;-85
2023/04/12 05:08:37;;;;;;;4.13;2.10;;;;;;;;;;5017251;28;20281;-83
2023/04/12 05:11:05;;;;;;;5.07;2.50;;;;;;;;;;5002194;28;20220;-85
2023/04/12 05:13:33;;;;;;;6.77;2.60;;;;;;;;;;5015631;28;20242;-83
2023/04/12 05:15:59;;;;;;;5.80;2.90;;;;;;;;;;5001040;28;20696;-84
2023/04/12 05:18:27;;;;;;;6.40;3.10;;;;;;;;;;5006187;28;20219;-83
2023/04/12 05:20:55;;;;;;;4.03;2.67;;;;;;;;;;5031875;28;20251;-85
2023/04/12 05:23:20;;;;;;;4.07;2.40;;;;;;;;;;5014146;28;20548;-83
2023/04/12 05:25:47;;;;;;;3.47;2.20;;;;;;;;;;5030220;28;20224;-85
2023/04/12 05:28:14;;;;;;;4.43;2.40;;;;;;;;;;4998917;28;20231;-85
2023/04/12 05:30:40;;;;;;;6.40;2.50;;;;;;;;;;5014185;28;20224;-84
2023/04/12 05:33:10;;;;;;;4.50;2.60;;;;;;;;;;5016231;28;20291;-84
2023/04/12 05:35:42;;;;;;;5.13;2.50;;;;;;;;;;5002478;28;20688;-83
2023/04/12 05:38:07;;;;;;;4.03;2.40;;;;;;;;;;5032892;28;20235;-83
2023/04/12 05:40:35;;;;;;;5.50;2.40;;;;;;;;;;5000194;28;20228;-84
2023/04/12 05:43:02;;;;;;;4.27;2.53;;;;;;;;;;5014713;28;20221;-85
2023/04/12 05:45:30;;;;;;;4.77;2.80;;;;;;;;;;4984046;28;20223;-84
2023/04/12 05:47:56;;;;;;;3.73;2.50;;;;;;;;;;5044850;28;20232;-84
2023/04/12 05:50:24;;;;;;;4.07;2.40;;;;;;;;;;5002740;28;20224;-84
2023/04/12 05:52:53;;;;;;;6.43;2.60;;;;;;;;;;4996054;28;20200;-82
2023/04/12 05:55:24;;;;;;;5.10;2.70;;;;;;;;;;5000735;28;20227;-81
2023/04/12 05:57:53;;;;;;;5.43;2.53;;;;;;;;;;5061478;28;20239;-82
2023/04/12 06:00:20;;;;;;;5.57;2.10;;;;;;;;;;5005247;28;20216;-83
2023/04/12 06:02:49;;;;;;;5.43;2.30;;;;;;;;;;5002791;28;20257;-84
2023/04/12 06:05:16;;;;;;;3.67;2.10;;;;;;;;;;5006922;28;20243;-83
2023/04/12 06:07:47;;;;;;;2.53;2.00;;;;;;;;;;5010279;28;20221;-83
2023/04/12 06:10:18;;;;;;;4.17;2.10;;;;;;;;;;5012832;28;20768;-82
2023/04/12 06:12:48;;;;;;;4.27;2.00;;;;;;;;;;5007630;28;20231;-85
2023/04/12 06:15:18;;;;;;;4.17;1.90;;;;;;;;;;5021375;28;20208;-83
2023/04/12 06:17:45;;;;;;;4.87;1.90;;;;;;;;;;5004974;28;20227;-83
2023/04/12 06:20:11;;;;;;;5.83;2.00;;;;;;;;;;5003166;28;20232;-84
2023/04/12 06:22:37;;;;;;;2.33;1.60;;;;;;;;;;5033803;28;20224;-86
2023/04/12 06:25:07;;;;;;;5.80;1.90;;;;;;;;;;5035749;28;20286;-84
2023/04/12 06:27:35;;;;;;;4.20;1.77;;;;;;;;;;5019486;28;20228;-86
2023/04/12 06:30:01;;;;;;;3.07;1.90;;;;;;;;;;5021440;28;20262;-82
2023/04/12 06:32:28;;;;;;;3.03;1.70;;;;;;;;;;5019560;28;20227;-85
2023/04/12 06:34:55;;;;;;;3.00;2.00;;;;;;;;;;5019952;28;20239;-84
2023/04/12 06:37:20;;;;;;;5.03;1.83;;;;;;;;;;5002921;28;20279;-83
2023/04/12 06:39:46;;;;;;;3.83;1.90;;;;;;;;;;5018680;28;20225;-81
2023/04/12 06:42:16;;;;;;;2.93;1.60;;;;;;;;;;5012044;28;20216;-85
2023/04/12 06:44:42;;;;;;;2.73;1.60;;;;;;;;;;5003079;28;20220;-84
2023/04/12 06:47:08;;;;;;;3.00;1.50;;;;;;;;;;5017948;28;20220;-82
2023/04/12 06:49:35;;;;;;;2.90;1.83;;;;;;;;;;5003134;28;20258;-83
2023/04/12 06:52:03;;;;;;;3.17;1.50;;;;;;;;;;5009993;28;20220;-83
2023/04/12 06:54:29;;;;;;;6.10;1.80;;;;;;;;;;5004020;28;20598;-83
2023/04/12 06:57:00;;;;;;;2.77;1.60;;;;;;;;;;5030863;28;20224;-84
2023/04/12 06:59:26;;;;;;;3.53;1.80;;;;;;;;;;5016068;28;20924;-85
2023/04/12 07:01:51;;;;;;;5.43;2.03;;;;;;;;;;5017227;28;20230;-85
2023/04/12 07:04:17;;;;;;;4.30;1.60;;;;;;;;;;5003797;28;20228;-84
2023/04/12 07:06:42;;;;;;;4.23;1.70;;;;;;;;;;5005674;28;20192;-83
2023/04/12 07:09:10;;;;;;;4.17;1.70;;;;;;;;;;5005921;28;20229;-85
2023/04/12 07:11:36;;;;;;;3.60;1.50;;;;;;;;;;5016989;28;20220;-82
2023/04/12 07:14:02;;;;;;;4.70;2.03;;;;;;;;;;5050675;28;20224;-85
2023/04/12 07:16:32;;;;;;;2.63;1.60;;;;;;;;;;5002879;28;20571;-84
2023/04/12 07:19:03;;;;;;;3.63;1.50;;;;;;;;;;5035686;28;20228;-84
2023/04/12 07:21:28;;;;;;;3.63;1.67;;;;;;;;;;5005170;28;20224;-83
2023/04/12 07:23:54;;;;;;;3.00;1.60;;;;;;;;;;5030919;28;20220;-84
2023/04/12 07:26:20;;;;;;;5.80;1.77;;;;;;;;;;5001355;28;20735;-86
2023/04/12 07:28:46;;;;;;;3.43;1.67;;;;;;;;;;5015054;28;20718;-83
2023/04/12 07:31:11;;;;;;;4.17;1.73;;;;;;;;;;4999906;28;20231;-86
2023/04/12 07:33:39;;;;;;;4.40;1.80;;;;;;;;;;5017168;28;20741;-85
2023/04/12 07:36:06;;;;;;;3.87;1.67;;;;;;;;;;5016232;28;20257;-87
2023/04/12 07:38:31;;;;;;;5.10;1.70;;;;;;;;;;5002389;28;20242;-82
2023/04/12 07:40:56;;;;;;;5.47;1.90;;;;;;;;;;5046934;28;20223;-85
2023/04/12 07:43:22;;;;;;;4.67;1.50;;;;;;;;;;5009699;28;20254;-85
2023/04/12 07:45:48;;;;;;;6.10;1.80;;;;;;;;;;5009434;28;20263;-84
2023/04/12 07:48:16;;;;;;;4.80;1.83;;;;;;;;;;4997286;28;20689;-83
2023/04/12 07:50:42;;;;;;;6.97;2.00;;;;;;;;;;4994601;28;20228;-84
2023/04/12 07:53:27;;;;;;;6.87;2.27;;;;;;;;;;5031391;28;20306;-84
2023/04/12 07:55:55;;;;;;;5.27;2.83;;;;;;;;;;5027764;28;20216;-83
2023/04/12 07:58:23;;;;;;;3.57;1.60;;;;;;;;;;5015045;28;20235;-83
2023/04/12 08:00:52;;;;;;;4.83;1.40;;;;;;;;;;5030054;28;20743;-85
2023/04/12 08:03:20;;;;;;;4.77;1.87;;;;;;;;;;5046369;28;20216;-82
2023/04/12 08:05:51;;;;;;;4.33;1.53;;;;;;;;;;4997863;28;20216;-83
2023/04/12 08:08:18;;;;;;;4.70;1.90;;;;;;;;;;4984376;28;20228;-84
2023/04/12 08:10:46;;;;;;;3.37;1.60;;;;;;;;;;5000152;28;20740;-83
2023/04/12 08:13:16;;;;;;;3.63;1.80;;;;;;;;;;5000441;28;20208;-87
2023/04/12 08:15:42;;;;;;;5.50;1.73;;;;;;;;;;5002310;28;20235;-86
2023/04/12 08:18:13;;;;;;;3.20;1.90;;;;;;;;;;5018593;28;20414;-85
2023/04/12 08:20:43;;;;;;;4.10;1.40;;;;;;;;;;5018658;28;20411;-84
2023/04/12 08:23:09;;;;;;;3.27;1.80;;;;;;;;;;5029120;28;20255;-82
2023/04/12 08:25:35;;;;;;;4.27;1.50;;;;;;;;;;5018367;28;20216;-82
2023/04/12 08:28:00;;;;;;;4.63;1.60;;;;;;;;;;4988497;28;20966;-86
2023/04/12 08:30:26;;;;;;;3.70;1.80;;;;;;;;;;5002727;28;20939;-80
2023/04/12 08:32:52;;;;;;;3.50;1.60;;;;;;;;;;5018301;28;20686;-85
2023/04/12 08:35:18;;;;;;;3.63;2.00;;;;;;;;;;5044868;28;20228;-83
2023/04/12 08:37:46;;;;;;;3.87;1.80;;;;;;;;;;4993509;28;20235;-83
2023/04/12 08:40:13;;;;;;;4.90;1.83;;;;;;;;;;5022308;28;20236;-85
2023/04/12 08:42:38;;;;;;;2.80;1.60;;;;;;;;;;5024335;28;20216;-83
2023/04/12 08:45:07;;;;;;;4.17;1.60;;;;;;;;;;5037120;28;20837;-85
2023/04/12 08:47:36;;;;;;;4.97;1.83;;;;;;;;;;5023405;28;20263;-86
2023/04/12 08:50:07;;;;;;;4.20;1.83;;;;;;;;;;5007537;28;20221;-85
2023/04/12 08:52:32;;;;;;;3.27;1.47;;;;;;;;;;5021375;28;20731;-84
2023/04/12 08:54:58;;;;;;;4.97;1.60;;;;;;;;;;5017252;28;20220;-85
2023/04/12 08:57:23;;;;;;;3.27;1.47;;;;;;;;;;5017549;28;20748;-83
2023/04/12 08:59:49;;;;;;;3.37;1.80;;;;;;;;;;5020578;28;20228;-82
2023/04/12 09:02:17;;;;;;;5.03;1.60;;;;;;;;;;4984086;28;20231;-85
2023/04/12 09:04:51;;;;;;;3.33;1.50;;;;;;;;;;5001131;28;20221;-82
2023/04/12 09:07:16;;;;;;;4.10;1.73;;;;;;;;;;5020434;28;20216;-85
2023/04/12 09:09:45;;;;;;;4.77;1.63;;;;;;;;;;5003090;28;20580;-84
2023/04/12 09:12:14;;;;;;;5.33;1.50;;;;;;;;;;5036872;28;20298;-83
2023/04/12 09:14:43;;;;;;;4.03;1.77;;;;;;;;;;5021200;28;20212;-86
2023/04/12 09:17:30;;;;;;;4.37;1.63;;;;;;;;;;5045918;28;20857;-86
2023/04/12 09:19:58;;;;;;;3.17;1.50;;;;;;;;;;5017751;28;20228;-83
2023/04/12 09:22:36;;;;;;;2.97;1.60;;;;;;;;;;5013612;28;20243;-87
2023/04/12 09:25:04;;;;;;;5.87;1.87;;;;;;;;;;5018010;28;20216;-86
2023/04/12 09:27:47;;;;;;;3.83;1.60;;;;;;;;;;5017308;28;20259;-84
2023/04/12 09:30:14;;;;;;;2.60;1.50;;;;;;;;;;5004562;28;20304;-86
2023/04/12 09:32:41;;;;;;;4.40;1.73;;;;;;;;;;4986319;28;20224;-83
2023/04/12 09:35:07;;;;;;;3.73;1.60;;;;;;;;;;5049392;28;20220;-86
2023/04/12 09:37:33;;;;;;;5.60;1.73;;;;;;;;;;5015571;28;20242;-84
2023/04/12 09:40:00;;;;;;;5.87;1.80;;;;;;;;;;5031458;28;20282;-83
2023/04/12 09:42:27;;;;;;;3.93;1.73;;;;;;;;;;5016405;28;20220;-83
2023/04/12 09:44:56;;;;;;;4.00;1.80;;;;;;;;;;5017470;28;20256;-82
2023/04/12 09:47:24;;;;;;;4.93;1.57;;;;;;;;;;4999918;28;20725;-84
2023/04/12 09:49:52;;;;;;;2.80;1.70;;;;;;;;;;5004460;28;20220;-83
2023/04/12 09:52:17;;;;;;;4.40;1.73;;;;;;;;;;4983851;28;20331;-83
2023/04/12 09:54:44;;;;;;;3.50;1.80;;;;;;;;;;5014355;28;20262;-84
2023/04/12 09:57:10;;;;;;;3.43;1.87;;;;;;;;;;5035928;28;20631;-85
2023/04/12 09:59:39;;;;;;;4.30;1.70;;;;;;;;;;5033787;28;20614;-82
2023/04/12 10:02:18;;;;;;;5.37;2.20;;;;;;;;;;5013441;28;20228;-83
2023/04/12 10:04:44;;;;;;;4.53;1.90;;;;;;;;;;5002888;28;20227;-83
2023/04/12 10:07:10;;;;;;;5.83;2.07;;;;;;;;;;5030974;28;20240;-86
2023/04/12 10:09:39;;;;;;;4.27;2.23;;;;;;;;;;5016276;28;20228;-87
2023/04/12 10:12:07;;;;;;;3.93;2.27;;;;;;;;;;5001755;28;20221;-85
2023/04/12 10:14:33;;;;;;;6.07;2.53;;;;;;;;;;5017055;28;20225;-85
2023/04/12 10:17:03;;;;;;;5.20;2.40;;;;;;;;;;5015104;28;20232;-83
2023/04/12 10:19:32;;;;;;;3.93;2.50;;;;;;;;;;5001441;28;20224;-86
2023/04/12 10:22:00;;;;;;;5.77;2.23;;;;;;;;;;5000635;28;20961;-84
2023/04/12 10:24:26;;;;;;;5.90;2.50;;;;;;;;;;5017788;28;20216;-84
2023/04/12 10:26:54;;;;;;;5.10;2.73;;;;;;;;;;5018134;28;20223;-84
2023/04/12 10:29:27;;;;;;;4.53;2.60;;;;;;;;;;5008991;28;20283;-83
2023/04/12 10:31:54;;;;;;;4.83;2.60;;;;;;;;;;5020913;28;20223;-86
2023/04/12 10:34:28;;;;;;;5.30;2.90;;;;;;;;;;5023987;28;20212;-83
2023/04/12 10:36:58;;;;;;;6.27;2.93;;;;;;;;;;5018409;28;20240;-84
2023/04/12 10:39:43;;;;;;;5.77;2.77;;;;;;;;;;5010454;28;20224;-84
2023/04/12 10:42:27;;;;;;;6.40;2.80;;;;;;;;;;5001037;28;20673;-85
2023/04/12 10:44:56;;;;;;;6.73;3.10;;;;;;;;;;4997145;28;20233;-86
2023/04/12 10:48:02;;;;;;;4.20;2.77;;;;;;;;;;5007794;28;20243;-83
2023/04/12 10:50:30;;;;;;;5.43;2.93;;;;;;;;;;5036972;28;20226;-87
2023/04/12 10:53:17;;;;;;;5.87;2.80;;;;;;;;;;5015743;28;20303;-87
2023/04/12 10:55:45;;;;;;;5.53;2.60;;;;;;;;;;5030982;28;20575;-84
2023/04/12 10:58:47;;;;;;;5.13;2.53;;;;;;;;;;5015699;28;20216;-85
2023/04/12 11:01:13;;;;;;;6.03;2.33;;;;;;;;;;5027512;28;20212;-86
2023/04/12 11:04:04;;;;;;;4.13;2.30;;;;;;;;;;5013799;28;20234;-85
2023/04/12 11:06:46;;;;;;;5.17;2.27;;;;;;;;;;5038189;28;20230;-85
2023/04/12 11:09:33;;;;;;;4.73;2.27;;;;;;;;;;5034019;28;20243;-85
2023/04/12 11:12:04;;;;;;;4.40;2.13;;;;;;;;;;5047624;28;20322;-84
2023/04/12 11:14:36;;;;;;;3.07;2.20;;;;;;;;;;5014820;28;20243;-84
2023/04/12 11:17:05;;;;;;;4.47;2.43;;;;;;;;;;5009187;28;20232;-84
2023/04/12 11:19:37;;;;;;;2.63;2.20;;;;;;;;;;5047902;28;20231;-84
2023/04/12 11:22:04;;;;;;;3.43;2.10;;;;;;;;;;4997329;28;20220;-84
2023/04/12 11:24:32;;;;;;;3.87;2.17;;;;;;;;;;5014879;28;21027;-86
2023/04/12 11:26:58;;;;;;;3.73;2.40;;;;;;;;;;4981122;28;20228;-85
2023/04/12 11:29:31;;;;;;;3.30;2.20;;;;;;;;;;4996106;28;20578;-87
2023/04/12 11:31:57;;;;;;;5.50;2.30;;;;;;;;;;4992294;28;20220;-87
2023/04/12 11:34:22;;;;;;;4.10;2.30;;;;;;;;;;5009375;28;20230;-85
2023/04/12 11:36:53;;;;;;;4.03;2.60;;;;;;;;;;5015284;28;20243;-82
2023/04/12 11:39:21;;;;;;;4.50;2.40;;;;;;;;;;5014315;28;20256;-87
2023/04/12 11:41:47;;;;;;;3.47;2.27;;;;;;;;;;5006288;28;20220;-85
2023/04/12 11:44:13;;;;;;;4.27;2.40;;;;;;;;;;4997781;28;21084;-86
2023/04/12 11:46:39;;;;;;;5.13;2.70;;;;;;;;;;5011100;28;20228;-84
2023/04/12 11:49:05;;;;;;;5.40;2.30;;;;;;;;;;4994587;28;20690;-84
2023/04/12 11:51:35;;;;;;;4.87;2.57;;;;;;;;;;4999565;28;20581;-87
2023/04/12 11:54:01;;;;;;;4.47;2.50;;;;;;;;;;4997154;28;20612;-88
2023/04/12 11:56:31;;;;;;;3.83;2.37;;;;;;;;;;5011543;28;20227;-84
2023/04/12 11:58:59;;;;;;;5.17;2.70;;;;;;;;;;4998878;28;20227;-87
2023/04/12 12:01:28;;;;;;;5.97;2.70;;;;;;;;;;5000268;28;20980;-84
2023/04/12 12:03:55;;;;;;;5.17;2.50;;;;;;;;;;5014110;28;20224;-86
2023/04/12 12:06:23;;;;;;;5.17;2.60;;;;;;;;;;5015090;28;20597;-85
2023/04/12 12:08:51;;;;;;;4.03;2.70;;;;;;;;;;4986184;28;20235;-85
2023/04/12 12:11:20;;;;;;;5.23;2.70;;;;;;;;;;4994840;28;20221;-85
2023/04/12 12:13:55;;;;;;;3.93;2.93;;;;;;;;;;5015891;28;20253;-84
2023/04/12 12:16:26;;;;;;;4.10;2.40;;;;;;;;;;5004880;28;20668;-87
2023/04/12 12:18:52;;;;;;;4.83;2.60;;;;;;;;;;4997540;28;20217;-84
2023/04/12 12:21:18;;;;;;;4.67;2.90;;;;;;;;;;5000694;28;20219;-85
2023/04/12 12:23:44;;;;;;;5.00;3.03;;;;;;;;;;4998506;28;20223;-85
2023/04/12 12:26:24;;;;;;;4.40;2.97;;;;;;;;;;4998700;28;20236;-84
2023/04/12 12:28:51;;;;;;;4.73;3.20;;;;;;;;;;5013417;28;20221;-86
2023/04/12 12:31:21;;;;;;;4.90;3.13;;;;;;;;;;4997584;28;20273;-88
2023/04/12 12:33:51;;;;;;;6.67;3.00;;;;;;;;;;5031572;28;20224;-87
2023/04/12 12:36:19;;;;;;;6.60;3.20;;;;;;;;;;4997378;28;20697;-85
2023/04/12 12:38:45;;;;;;;4.07;2.80;;;;;;;;;;4988830;28;20235;-84
2023/04/12 12:41:22;;;;;;;6.60;3.30;;;;;;;;;;5000909;28;20577;-84
2023/04/12 12:43:53;;;;;;;5.47;2.90;;;;;;;;;;5033197;28;20302;-88
2023/04/12 12:46:19;;;;;;;4.80;3.20;;;;;;;;;;5001516;28;20220;-86
2023/04/12 12:48:45;;;;;;;4.60;3.17;;;;;;;;;;5018480;28;20259;-86
2023/04/12 12:51:11;;;;;;;3.97;3.00;;;;;;;;;;5007199;28;20281;-86
2023/04/12 12:53:40;;;;;;;5.67;3.50;;;;;;;;;;5037202;28;20224;-86
2023/04/12 12:56:07;;;;;;;5.10;3.23;;;;;;;;;;5000695;28;20220;-85
2023/04/12 12:58:37;;;;;;;4.87;3.30;;;;;;;;;;5017939;28;20780;-87
2023/04/12 13:01:07;;;;;;;4.77;3.30;;;;;;;;;;5032491;28;20311;-85
2023/04/12 13:03:33;;;;;;;7.77;3.40;;;;;;;;;;5018422;28;20765;-85
2023/04/12 13:06:05;;;;;;;5.97;3.50;;;;;;;;;;4998469;28;20583;-85
2023/04/12 13:08:34;;;;;;;4.57;3.23;;;;;;;;;;5032375;28;20246;-87
2023/04/12 13:10:59;;;;;;;3.83;3.40;;;;;;;;;;5035785;28;20228;-84
2023/04/12 13:13:25;;;;;;;4.73;3.50;;;;;;;;;;5032815;28;20231;-87
2023/04/12 13:15:51;;;;;;;6.03;3.80;;;;;;;;;;5016150;28;20822;-85
2023/04/12 13:18:17;;;;;;;5.00;3.30;;;;;;;;;;4997681;28;20229;-85
2023/04/12 13:20:42;;;;;;;3.83;3.33;;;;;;;;;;5016053;28;20224;-86
2023/04/12 13:23:12;;;;;;;3.97;3.07;;;;;;;;;;5017053;28;20301;-86
2023/04/12 13:25:37;;;;;;;4.33;3.03;;;;;;;;;;5015318;28;20584;-86
2023/04/12 13:28:11;;;;;;;5.63;3.23;;;;;;;;;;5018457;28;20644;-86
2023/04/12 13:30:39;;;;;;;3.33;3.03;;;;;;;;;;5034155;28;20235;-83
2023/04/12 13:33:09;;;;;;;6.93;3.50;;;;;;;;;;5013216;28;20228;-85
2023/04/12 13:35:36;;;;;;;4.30;3.03;;;;;;;;;;5046796;28;20607;-85
2023/04/12 13:38:02;;;;;;;4.30;3.17;;;;;;;;;;5007287;28;20238;-84
2023/04/12 13:40:30;;;;;;;3.37;2.90;;;;;;;;;;5047311;28;20220;-88
2023/04/12 13:42:55;;;;;;;4.40;3.00;;;;;;;;;;5019334;28;20231;-86
2023/04/12 13:45:21;;;;;;;3.40;3.10;;;;;;;;;;5030477;28;20224;-84
2023/04/12 13:47:48;;;;;;;3.33;3.03;;;;;;;;;;5029860;28;20216;-86
2023/04/12 13:50:14;;;;;;;3.53;3.23;;;;;;;;;;5015524;28;20239;-83
2023/04/12 13:52:42;;;;;;;3.73;3.17;;;;;;;;;;5001654;28;20218;-86
2023/04/12 13:55:08;;;;;;;3.60;3.20;;;;;;;;;;5015635;28;20263;-84
2023/04/12 13:57:37;;;;;;;3.70;3.07;;;;;;;;;;5002361;28;20224;-84
2023/04/12 14:00:03;;;;;;;4.80;3.20;;;;;;;;;;5017859;28;20239;-87
2023/04/12 14:02:32;;;;;;;3.30;3.00;;;;;;;;;;5024591;28;20304;-83
2023/04/12 14:04:58;;;;;;;3.70;3.30;;;;;;;;;;5002664;28;20232;-86
2023/04/12 14:07:24;;;;;;;3.63;3.23;;;;;;;;;;5002606;28;20236;-85
2023/04/12 14:09:50;;;;;;;4.47;3.30;;;;;;;;;;5018533;28;20231;-86
2023/04/12 14:12:15;;;;;;;5.60;3.43;;;;;;;;;;5017245;28;20244;-85
2023/04/12 14:14:41;;;;;;;3.43;3.13;;;;;;;;;;5047945;28;20227;-86
2023/04/12 14:17:10;;;;;;;3.23;3.00;;;;;;;;;;5016411;28;20228;-85
2023/04/12 14:19:35;;;;;;;3.77;3.10;;;;;;;;;;5029717;28;20231;-88
2023/04/12 14:22:01;;;;;;;3.47;2.90;;;;;;;;;;5002216;28;20227;-86
2023/04/12 14:24:26;;;;;;;3.33;2.90;;;;;;;;;;5001420;28;20697;-88
2023/04/12 14:26:53;;;;;;;3.77;3.17;;;;;;;;;;5013449;28;20220;-88
2023/04/12 14:29:22;;;;;;;3.47;3.17;;;;;;;;;;5002680;28;20224;-86
2023/04/12 14:31:50;;;;;;;3.57;2.77;;;;;;;;;;4985632;28;20327;-87
2023/04/12 14:34:16;;;;;;;3.67;3.20;;;;;;;;;;5014889;28;20231;-87
2023/04/12 14:36:46;;;;;;;3.50;3.20;;;;;;;;;;5016329;28;20230;-83
2023/04/12 14:39:14;;;;;;;4.17;3.40;;;;;;;;;;5016518;28;20224;-84
2023/04/12 14:41:42;;;;;;;3.57;3.27;;;;;;;;;;5000839;28;20255;-87
2023/04/12 14:44:11;;;;;;;4.60;3.60;;;;;;;;;;5021428;28;20636;-83
2023/04/12 14:46:36;;;;;;;4.37;3.67;;;;;;;;;;5042095;28;20224;-86
2023/04/12 14:49:02;;;;;;;4.70;3.83;;;;;;;;;;5020407;28;20301;-85
2023/04/12 14:51:28;;;;;;;3.77;3.43;;;;;;;;;;5002830;28;20216;-89
2023/04/12 14:53:56;;;;;;;4.03;3.60;;;;;;;;;;5007160;28;20220;-84
2023/04/12 14:56:23;;;;;;;3.93;3.27;;;;;;;;;;5021800;28;20230;-87